sensor_id;sensor_type;location;lat;lon;timestamp;pressure;altitude;pressure_sealevel;temperature;humidity
23996;BME280;12207;50.076;8.848;2024-03-17T00:00:38;100835.78;;;6.81;87.50
23996;BME280;12207;50.076;8.848;2024-03-17T00:03:06;100834.81;;;6.74;88.47
23996;BME280;12207;50.076;8.848;2024-03-17T00:05:35;100834.63;;;6.75;90.24
23996;BME280;12207;50.076;8.848;2024-03-17T00:08:02;100838.78;;;6.78;89.84
23996;BME280;12207;50.076;8.848;2024-03-17T00:10:31;100834.97;;;6.72;90.78
23996;BME280;12207;50.076;8.848;2024-03-17T00:12:57;100833.66;;;6.68;90.79
23996;BME280;12207;50.076;8.848;2024-03-17T00:15:23;100824.31;;;6.64;90.61
23996;BME280;12207;50.076;8.848;2024-03-17T00:17:52;100826.53;;;6.61;90.42
23996;BME280;12207;50.076;8.848;2024-03-17T00:20:19;100823.53;;;6.56;91.29
23996;BME280;12207;50.076;8.848;2024-03-17T00:22:49;100828.19;;;6.54;91.28
23996;BME280;12207;50.076;8.848;2024-03-17T00:25:17;100825.88;;;6.50;91.19
23996;BME280;12207;50.076;8.848;2024-03-17T00:27:44;100820.72;;;6.49;91.23
23996;BME280;12207;50.076;8.848;2024-03-17T00:30:11;100826.22;;;6.47;93.02
23996;BME280;12207;50.076;8.848;2024-03-17T00:32:42;100822.22;;;6.43;93.10
23996;BME280;12207;50.076;8.848;2024-03-17T00:35:10;100826.22;;;6.39;93.68
23996;BME280;12207;50.076;8.848;2024-03-17T00:37:37;100818.91;;;6.33;95.58
23996;BME280;12207;50.076;8.848;2024-03-17T00:40:04;100819.59;;;6.27;94.33
23996;BME280;12207;50.076;8.848;2024-03-17T00:42:32;100817.59;;;6.21;93.32
23996;BME280;12207;50.076;8.848;2024-03-17T00:44:59;100819.75;;;6.18;94.64
23996;BME280;12207;50.076;8.848;2024-03-17T00:47:31;100815.59;;;6.15;94.85
23996;BME280;12207;50.076;8.848;2024-03-17T00:49:57;100812.47;;;6.11;96.05
23996;BME280;12207;50.076;8.848;2024-03-17T00:52:26;100814.78;;;6.06;96.35
23996;BME280;12207;50.076;8.848;2024-03-17T00:54:53;100814.28;;;6.03;96.15
23996;BME280;12207;50.076;8.848;2024-03-17T00:57:19;100804.97;;;5.99;95.98
23996;BME280;12207;50.076;8.848;2024-03-17T00:59:46;100810.13;;;5.92;96.36
23996;BME280;12207;50.076;8.848;2024-03-17T01:02:12;100805.44;;;5.86;96.22
23996;BME280;12207;50.076;8.848;2024-03-17T01:04:45;100800.13;;;5.78;94.77
23996;BME280;12207;50.076;8.848;2024-03-17T01:07:12;100801.94;;;5.69;94.90
23996;BME280;12207;50.076;8.848;2024-03-17T01:09:38;100799.94;;;5.63;96.44
23996;BME280;12207;50.076;8.848;2024-03-17T01:12:05;100787.81;;;5.61;96.36
23996;BME280;12207;50.076;8.848;2024-03-17T01:14:32;100790.63;;;5.59;97.46
23996;BME280;12207;50.076;8.848;2024-03-17T01:17:02;100792.63;;;5.57;96.93
23996;BME280;12207;50.076;8.848;2024-03-17T01:19:32;100784.97;;;5.54;95.96
23996;BME280;12207;50.076;8.848;2024-03-17T01:21:59;100788.13;;;5.49;97.10
23996;BME280;12207;50.076;8.848;2024-03-17T01:24:25;100787.28;;;5.49;97.75
23996;BME280;12207;50.076;8.848;2024-03-17T01:26:57;100784.47;;;5.51;97.62
23996;BME280;12207;50.076;8.848;2024-03-17T01:29:25;100778.50;;;5.40;97.85
23996;BME280;12207;50.076;8.848;2024-03-17T01:31:52;100774.66;;;5.35;97.56
23996;BME280;12207;50.076;8.848;2024-03-17T01:34:22;100766.00;;;5.33;98.03
23996;BME280;12207;50.076;8.848;2024-03-17T01:36:51;100764.03;;;5.35;98.41
23996;BME280;12207;50.076;8.848;2024-03-17T01:39:20;100760.69;;;5.33;99.45
23996;BME280;12207;50.076;8.848;2024-03-17T01:41:47;100758.03;;;5.33;98.67
23996;BME280;12207;50.076;8.848;2024-03-17T01:44:27;100764.03;;;5.35;98.75
23996;BME280;12207;50.076;8.848;2024-03-17T01:46:55;100755.38;;;5.33;99.18
23996;BME280;12207;50.076;8.848;2024-03-17T01:49:22;100756.03;;;5.27;99.23
23996;BME280;12207;50.076;8.848;2024-03-17T01:51:50;100758.19;;;5.23;98.81
23996;BME280;12207;50.076;8.848;2024-03-17T01:54:20;100755.38;;;5.17;99.45
23996;BME280;12207;50.076;8.848;2024-03-17T01:56:46;100752.69;;;5.08;100.00
23996;BME280;12207;50.076;8.848;2024-03-17T01:59:16;100750.50;;;5.04;99.21
23996;BME280;12207;50.076;8.848;2024-03-17T02:01:42;100758.94;;;4.99;99.85
23996;BME280;12207;50.076;8.848;2024-03-17T02:04:08;100752.66;;;4.92;99.91
23996;BME280;12207;50.076;8.848;2024-03-17T02:06:34;100758.59;;;4.86;100.00
23996;BME280;12207;50.076;8.848;2024-03-17T02:09:00;100744.97;;;4.81;100.00
23996;BME280;12207;50.076;8.848;2024-03-17T02:11:31;100742.97;;;4.83;100.00
23996;BME280;12207;50.076;8.848;2024-03-17T02:13:59;100746.31;;;4.85;100.00
23996;BME280;12207;50.076;8.848;2024-03-17T02:16:26;100740.00;;;4.86;100.00
23996;BME280;12207;50.076;8.848;2024-03-17T02:18:56;100746.00;;;4.88;100.00
23996;BME280;12207;50.076;8.848;2024-03-17T02:21:23;100745.16;;;4.88;100.00
23996;BME280;12207;50.076;8.848;2024-03-17T02:23:51;100739.34;;;4.84;100.00
23996;BME280;12207;50.076;8.848;2024-03-17T02:26:17;100746.94;;;4.79;100.00
23996;BME280;12207;50.076;8.848;2024-03-17T02:28:45;100737.63;;;4.75;100.00
23996;BME280;12207;50.076;8.848;2024-03-17T02:31:14;100737.97;;;4.72;100.00
23996;BME280;12207;50.076;8.848;2024-03-17T02:33:42;100733.97;;;4.68;100.00
23996;BME280;12207;50.076;8.848;2024-03-17T02:36:11;100729.28;;;4.62;100.00
23996;BME280;12207;50.076;8.848;2024-03-17T02:38:41;100730.91;;;4.55;100.00
23996;BME280;12207;50.076;8.848;2024-03-17T02:41:30;100733.88;;;4.52;100.00
23996;BME280;12207;50.076;8.848;2024-03-17T02:43:56;100735.03;;;4.49;100.00
23996;BME280;12207;50.076;8.848;2024-03-17T02:46:22;100730.91;;;4.47;100.00
23996;BME280;12207;50.076;8.848;2024-03-17T02:48:52;100721.59;;;4.42;100.00
23996;BME280;12207;50.076;8.848;2024-03-17T02:51:20;100719.25;;;4.39;100.00
23996;BME280;12207;50.076;8.848;2024-03-17T02:53:47;100723.88;;;4.37;100.00
23996;BME280;12207;50.076;8.848;2024-03-17T02:56:14;100720.41;;;4.37;100.00
23996;BME280;12207;50.076;8.848;2024-03-17T02:58:42;100724.88;;;4.36;100.00
23996;BME280;12207;50.076;8.848;2024-03-17T03:01:09;100728.50;;;4.35;100.00
23996;BME280;12207;50.076;8.848;2024-03-17T03:03:36;100717.53;;;4.30;100.00
23996;BME280;12207;50.076;8.848;2024-03-17T03:06:02;100724.97;;;4.27;100.00
23996;BME280;12207;50.076;8.848;2024-03-17T03:08:35;100713.66;;;4.17;100.00
23996;BME280;12207;50.076;8.848;2024-03-17T03:11:03;100723.50;;;4.24;100.00
23996;BME280;12207;50.076;8.848;2024-03-17T03:13:30;100727.06;;;4.15;100.00
23996;BME280;12207;50.076;8.848;2024-03-17T03:15:56;100722.28;;;4.19;100.00
23996;BME280;12207;50.076;8.848;2024-03-17T03:18:22;100722.28;;;4.19;100.00
23996;BME280;12207;50.076;8.848;2024-03-17T03:20:52;100715.84;;;4.21;100.00
23996;BME280;12207;50.076;8.848;2024-03-17T03:23:19;100717.81;;;4.19;100.00
23996;BME280;12207;50.076;8.848;2024-03-17T03:25:45;100722.31;;;4.27;100.00
23996;BME280;12207;50.076;8.848;2024-03-17T03:28:13;100722.16;;;4.28;100.00
23996;BME280;12207;50.076;8.848;2024-03-17T03:30:39;100726.78;;;4.26;100.00
23996;BME280;12207;50.076;8.848;2024-03-17T03:33:06;100727.47;;;4.28;100.00
23996;BME280;12207;50.076;8.848;2024-03-17T03:35:32;100735.44;;;4.28;100.00
23996;BME280;12207;50.076;8.848;2024-03-17T03:37:59;100728.13;;;4.22;100.00
23996;BME280;12207;50.076;8.848;2024-03-17T03:40:26;100725.09;;;4.17;100.00
23996;BME280;12207;50.076;8.848;2024-03-17T03:42:53;100730.09;;;4.20;100.00
23996;BME280;12207;50.076;8.848;2024-03-17T03:45:19;100725.63;;;4.21;100.00
23996;BME280;12207;50.076;8.848;2024-03-17T03:47:46;100734.03;;;4.16;100.00
23996;BME280;12207;50.076;8.848;2024-03-17T03:50:19;100725.72;;;4.11;100.00
23996;BME280;12207;50.076;8.848;2024-03-17T03:52:45;100728.00;;;4.06;100.00
23996;BME280;12207;50.076;8.848;2024-03-17T03:55:12;100732.28;;;3.99;100.00
23996;BME280;12207;50.076;8.848;2024-03-17T03:57:41;100738.50;;;3.90;100.00
23996;BME280;12207;50.076;8.848;2024-03-17T04:00:08;100740.78;;;3.85;100.00
23996;BME280;12207;50.076;8.848;2024-03-17T04:02:41;100741.41;;;3.78;100.00
23996;BME280;12207;50.076;8.848;2024-03-17T04:05:08;100741.56;;;3.77;100.00
23996;BME280;12207;50.076;8.848;2024-03-17T04:07:35;100746.03;;;3.76;100.00
23996;BME280;12207;50.076;8.848;2024-03-17T04:10:02;100749.72;;;3.84;100.00
23996;BME280;12207;50.076;8.848;2024-03-17T04:12:29;100750.84;;;3.81;100.00
23996;BME280;12207;50.076;8.848;2024-03-17T04:14:59;100744.41;;;3.84;100.00
23996;BME280;12207;50.076;8.848;2024-03-17T04:17:25;100750.19;;;3.79;100.00
23996;BME280;12207;50.076;8.848;2024-03-17T04:19:53;100753.00;;;3.78;100.00
23996;BME280;12207;50.076;8.848;2024-03-17T04:22:20;100749.84;;;3.74;100.00
23996;BME280;12207;50.076;8.848;2024-03-17T04:24:48;100752.94;;;3.69;100.00
23996;BME280;12207;50.076;8.848;2024-03-17T04:27:20;100752.94;;;3.69;100.00
23996;BME280;12207;50.076;8.848;2024-03-17T04:29:49;100759.22;;;3.68;100.00
23996;BME280;12207;50.076;8.848;2024-03-17T04:32:15;100758.38;;;3.68;100.00
23996;BME280;12207;50.076;8.848;2024-03-17T04:34:44;100761.25;;;3.74;100.00
23996;BME280;12207;50.076;8.848;2024-03-17T04:37:10;100757.25;;;3.70;100.00
23996;BME280;12207;50.076;8.848;2024-03-17T04:39:40;100753.78;;;3.70;100.00
23996;BME280;12207;50.076;8.848;2024-03-17T04:42:09;100758.97;;;3.80;100.00
23996;BME280;12207;50.076;8.848;2024-03-17T04:44:38;100755.84;;;3.84;100.00
23996;BME280;12207;50.076;8.848;2024-03-17T04:47:04;100755.41;;;3.89;100.00
23996;BME280;12207;50.076;8.848;2024-03-17T04:49:36;100760.03;;;3.87;100.00
23996;BME280;12207;50.076;8.848;2024-03-17T04:52:02;100757.38;;;3.87;100.00
23996;BME280;12207;50.076;8.848;2024-03-17T04:54:29;100757.06;;;3.90;100.00
23996;BME280;12207;50.076;8.848;2024-03-17T04:56:55;100754.88;;;3.85;100.00
23996;BME280;12207;50.076;8.848;2024-03-17T04:59:21;100750.97;;;3.71;100.00
23996;BME280;12207;50.076;8.848;2024-03-17T05:01:47;100754.16;;;3.57;100.00
23996;BME280;12207;50.076;8.848;2024-03-17T05:04:14;100758.41;;;3.50;100.00
23996;BME280;12207;50.076;8.848;2024-03-17T05:06:41;100754.09;;;3.49;100.00
23996;BME280;12207;50.076;8.848;2024-03-17T05:09:11;100752.47;;;3.56;100.00
23996;BME280;12207;50.076;8.848;2024-03-17T05:11:39;100747.19;;;3.56;100.00
23996;BME280;12207;50.076;8.848;2024-03-17T05:14:05;100749.19;;;3.54;100.00
23996;BME280;12207;50.076;8.848;2024-03-17T05:16:31;100747.81;;;3.50;100.00
23996;BME280;12207;50.076;8.848;2024-03-17T05:18:57;100754.41;;;3.46;100.00
23996;BME280;12207;50.076;8.848;2024-03-17T05:21:23;100753.03;;;3.42;100.00
23996;BME280;12207;50.076;8.848;2024-03-17T05:23:50;100755.97;;;3.39;100.00
23996;BME280;12207;50.076;8.848;2024-03-17T05:26:16;100747.34;;;3.37;100.00
23996;BME280;12207;50.076;8.848;2024-03-17T05:28:42;100754.75;;;3.33;100.00
23996;BME280;12207;50.076;8.848;2024-03-17T05:31:09;100754.91;;;3.32;100.00
23996;BME280;12207;50.076;8.848;2024-03-17T05:33:35;100753.91;;;3.33;100.00
23996;BME280;12207;50.076;8.848;2024-03-17T05:36:03;100748.28;;;3.28;100.00
23996;BME280;12207;50.076;8.848;2024-03-17T05:38:30;100750.13;;;3.35;100.00
23996;BME280;12207;50.076;8.848;2024-03-17T05:40:58;100753.63;;;3.36;100.00
23996;BME280;12207;50.076;8.848;2024-03-17T05:43:29;100751.66;;;3.38;100.00
23996;BME280;12207;50.076;8.848;2024-03-17T05:45:58;100750.44;;;3.32;100.00
23996;BME280;12207;50.076;8.848;2024-03-17T05:48:24;100754.91;;;3.32;100.00
23996;BME280;12207;50.076;8.848;2024-03-17T05:50:53;100760.59;;;3.37;100.00
23996;BME280;12207;50.076;8.848;2024-03-17T05:53:21;100751.75;;;3.46;100.00
23996;BME280;12207;50.076;8.848;2024-03-17T05:55:47;100751.50;;;3.57;100.00
23996;BME280;12207;50.076;8.848;2024-03-17T05:58:13;100761.88;;;3.68;100.00
23996;BME280;12207;50.076;8.848;2024-03-17T06:00:40;100754.06;;;3.67;100.00
23996;BME280;12207;50.076;8.848;2024-03-17T06:03:06;100752.34;;;3.75;100.00
23996;BME280;12207;50.076;8.848;2024-03-17T06:05:42;100750.16;;;3.97;100.00
23996;BME280;12207;50.076;8.848;2024-03-17T06:08:08;100755.34;;;4.06;100.00
23996;BME280;12207;50.076;8.848;2024-03-17T06:10:42;100753.75;;;4.14;100.00
23996;BME280;12207;50.076;8.848;2024-03-17T06:13:09;100756.63;;;4.20;100.00
23996;BME280;12207;50.076;8.848;2024-03-17T06:15:42;100749.50;;;4.21;100.00
23996;BME280;12207;50.076;8.848;2024-03-17T06:18:11;100763.78;;;4.28;100.00
23996;BME280;12207;50.076;8.848;2024-03-17T06:20:44;100754.66;;;4.30;100.00
23996;BME280;12207;50.076;8.848;2024-03-17T06:23:17;100757.38;;;4.38;100.00
23996;BME280;12207;50.076;8.848;2024-03-17T06:28:15;100755.84;;;4.62;100.00
23996;BME280;12207;50.076;8.848;2024-03-17T06:30:44;100746.25;;;4.69;100.00
23996;BME280;12207;50.076;8.848;2024-03-17T06:33:15;100748.41;;;4.73;100.00
23996;BME280;12207;50.076;8.848;2024-03-17T06:35:42;100751.25;;;4.80;100.00
23996;BME280;12207;50.076;8.848;2024-03-17T06:38:08;100747.34;;;4.92;100.00
23996;BME280;12207;50.076;8.848;2024-03-17T06:40:36;100745.16;;;4.88;100.00
23996;BME280;12207;50.076;8.848;2024-03-17T06:43:02;100748.03;;;5.10;100.00
23996;BME280;12207;50.076;8.848;2024-03-17T06:45:28;100747.41;;;5.25;100.00
23996;BME280;12207;50.076;8.848;2024-03-17T06:47:54;100745.09;;;5.38;100.00
23996;BME280;12207;50.076;8.848;2024-03-17T06:50:21;100740.44;;;5.48;100.00
23996;BME280;12207;50.076;8.848;2024-03-17T06:52:47;100737.13;;;5.54;100.00
23996;BME280;12207;50.076;8.848;2024-03-17T06:55:14;100738.81;;;5.55;99.52
23996;BME280;12207;50.076;8.848;2024-03-17T06:57:43;100741.13;;;5.58;99.26
23996;BME280;12207;50.076;8.848;2024-03-17T07:00:15;100750.44;;;5.62;99.40
23996;BME280;12207;50.076;8.848;2024-03-17T07:02:43;100751.94;;;5.65;99.64
23996;BME280;12207;50.076;8.848;2024-03-17T07:05:13;100746.94;;;5.70;97.67
23996;BME280;12207;50.076;8.848;2024-03-17T07:07:44;100744.28;;;5.78;97.59
23996;BME280;12207;50.076;8.848;2024-03-17T07:10:11;100741.97;;;5.91;98.11
23996;BME280;12207;50.076;8.848;2024-03-17T07:12:38;100750.13;;;5.98;97.60
23996;BME280;12207;50.076;8.848;2024-03-17T07:15:05;100745.78;;;6.13;95.78
23996;BME280;12207;50.076;8.848;2024-03-17T07:17:32;100745.44;;;6.63;94.89
23996;BME280;12207;50.076;8.848;2024-03-17T07:19:58;100742.81;;;6.94;91.31
23996;BME280;12207;50.076;8.848;2024-03-17T07:22:24;100729.72;;;7.38;89.79
23996;BME280;12207;50.076;8.848;2024-03-17T07:24:52;100735.06;;;7.61;87.88
23996;BME280;12207;50.076;8.848;2024-03-17T07:27:22;100742.69;;;7.64;84.82
23996;BME280;12207;50.076;8.848;2024-03-17T07:29:48;100741.53;;;7.81;84.13
23996;BME280;12207;50.076;8.848;2024-03-17T07:32:15;100739.19;;;7.86;83.12
23996;BME280;12207;50.076;8.848;2024-03-17T07:34:41;100743.72;;;8.01;82.22
23996;BME280;12207;50.076;8.848;2024-03-17T07:37:07;100732.53;;;8.20;81.47
23996;BME280;12207;50.076;8.848;2024-03-17T07:39:36;100731.47;;;8.06;81.11
23996;BME280;12207;50.076;8.848;2024-03-17T07:42:03;100735.25;;;8.49;80.96
23996;BME280;12207;50.076;8.848;2024-03-17T07:44:29;100733.75;;;8.62;79.68
23996;BME280;12207;50.076;8.848;2024-03-17T07:47:05;100737.88;;;8.94;77.92
23996;BME280;12207;50.076;8.848;2024-03-17T07:49:32;100737.16;;;8.70;77.39
23996;BME280;12207;50.076;8.848;2024-03-17T07:51:58;100742.88;;;9.03;77.38
23996;BME280;12207;50.076;8.848;2024-03-17T07:54:27;100740.41;;;9.02;77.71
23996;BME280;12207;50.076;8.848;2024-03-17T07:56:54;100738.59;;;9.23;75.84
23996;BME280;12207;50.076;8.848;2024-03-17T07:59:21;100736.44;;;9.12;75.60
23996;BME280;12207;50.076;8.848;2024-03-17T08:01:47;100737.19;;;9.70;75.26
23996;BME280;12207;50.076;8.848;2024-03-17T08:04:19;100737.97;;;9.85;74.61
23996;BME280;12207;50.076;8.848;2024-03-17T08:06:45;100733.69;;;9.91;74.30
23996;BME280;12207;50.076;8.848;2024-03-17T08:09:11;100729.00;;;10.00;73.15
23996;BME280;12207;50.076;8.848;2024-03-17T08:11:38;100725.31;;;10.01;70.55
23996;BME280;12207;50.076;8.848;2024-03-17T08:14:04;100722.00;;;9.99;71.93
23996;BME280;12207;50.076;8.848;2024-03-17T08:16:34;100727.69;;;10.45;72.77
23996;BME280;12207;50.076;8.848;2024-03-17T08:19:00;100720.38;;;10.67;68.97
23996;BME280;12207;50.076;8.848;2024-03-17T08:21:26;100718.72;;;11.20;66.63
23996;BME280;12207;50.076;8.848;2024-03-17T08:23:54;100715.88;;;11.48;66.18
23996;BME280;12207;50.076;8.848;2024-03-17T08:26:20;100725.22;;;11.91;65.76
23996;BME280;12207;50.076;8.848;2024-03-17T08:28:47;100725.03;;;11.86;62.07
23996;BME280;12207;50.076;8.848;2024-03-17T08:31:13;100727.72;;;12.00;63.81
23996;BME280;12207;50.076;8.848;2024-03-17T08:33:41;100729.72;;;12.37;64.02
23996;BME280;12207;50.076;8.848;2024-03-17T08:36:08;100736.34;;;12.41;60.95
23996;BME280;12207;50.076;8.848;2024-03-17T08:38:35;100737.91;;;12.69;62.75
23996;BME280;12207;50.076;8.848;2024-03-17T08:41:06;100738.34;;;12.66;60.58
23996;BME280;12207;50.076;8.848;2024-03-17T08:43:33;100736.94;;;12.50;61.66
23996;BME280;12207;50.076;8.848;2024-03-17T08:46:01;100738.69;;;12.76;61.30
23996;BME280;12207;50.076;8.848;2024-03-17T08:48:30;100731.97;;;13.05;59.85
23996;BME280;12207;50.076;8.848;2024-03-17T08:51:00;100731.50;;;13.14;61.87
23996;BME280;12207;50.076;8.848;2024-03-17T08:53:28;100738.66;;;13.40;60.88
23996;BME280;12207;50.076;8.848;2024-03-17T08:55:55;100741.19;;;13.60;58.92
23996;BME280;12207;50.076;8.848;2024-03-17T08:58:21;100734.81;;;13.54;59.74
23996;BME280;12207;50.076;8.848;2024-03-17T09:00:48;100729.38;;;13.29;59.26
23996;BME280;12207;50.076;8.848;2024-03-17T09:03:14;100713.44;;;13.59;60.10
23996;BME280;12207;50.076;8.848;2024-03-17T09:05:42;100720.50;;;13.85;59.14
23996;BME280;12207;50.076;8.848;2024-03-17T09:08:17;100710.66;;;13.73;57.05
23996;BME280;12207;50.076;8.848;2024-03-17T09:10:46;100716.97;;;13.60;55.60
23996;BME280;12207;50.076;8.848;2024-03-17T09:13:15;100712.69;;;14.02;56.38
23996;BME280;12207;50.076;8.848;2024-03-17T09:15:55;100717.75;;;14.35;55.91
23996;BME280;12207;50.076;8.848;2024-03-17T09:18:23;100714.13;;;14.23;55.22
23996;BME280;12207;50.076;8.848;2024-03-17T09:21:03;100707.19;;;13.65;55.66
23996;BME280;12207;50.076;8.848;2024-03-17T09:23:30;100712.81;;;13.32;57.24
23996;BME280;12207;50.076;8.848;2024-03-17T09:26:08;100713.91;;;13.50;57.28
23996;BME280;12207;50.076;8.848;2024-03-17T09:28:35;100711.53;;;13.35;57.50
23996;BME280;12207;50.076;8.848;2024-03-17T09:31:02;100713.91;;;13.81;56.38
23996;BME280;12207;50.076;8.848;2024-03-17T09:33:31;100712.84;;;13.82;57.84
23996;BME280;12207;50.076;8.848;2024-03-17T09:35:59;100711.31;;;13.68;58.57
23996;BME280;12207;50.076;8.848;2024-03-17T09:38:26;100708.06;;;13.59;58.20
23996;BME280;12207;50.076;8.848;2024-03-17T09:40:53;100711.19;;;13.81;56.84
23996;BME280;12207;50.076;8.848;2024-03-17T09:43:21;100705.31;;;14.34;57.46
23996;BME280;12207;50.076;8.848;2024-03-17T09:45:51;100701.00;;;14.88;54.53
23996;BME280;12207;50.076;8.848;2024-03-17T09:48:27;100693.97;;;14.87;55.34
23996;BME280;12207;50.076;8.848;2024-03-17T09:50:58;100701.28;;;14.43;53.96
23996;BME280;12207;50.076;8.848;2024-03-17T09:53:29;100703.59;;;13.96;55.29
23996;BME280;12207;50.076;8.848;2024-03-17T09:56:05;100695.25;;;14.05;56.22
23996;BME280;12207;50.076;8.848;2024-03-17T09:58:34;100677.19;;;13.62;56.19
23996;BME280;12207;50.076;8.848;2024-03-17T10:01:01;100685.56;;;13.72;56.16
23996;BME280;12207;50.076;8.848;2024-03-17T10:03:46;100685.47;;;13.85;57.81
23996;BME280;12207;50.076;8.848;2024-03-17T10:06:25;100676.25;;;14.18;58.96
23996;BME280;12207;50.076;8.848;2024-03-17T10:08:56;100676.88;;;14.38;55.52
23996;BME280;12207;50.076;8.848;2024-03-17T10:11:35;100682.25;;;14.75;54.32
23996;BME280;12207;50.076;8.848;2024-03-17T10:14:03;100680.72;;;14.97;52.39
23996;BME280;12207;50.076;8.848;2024-03-17T10:16:31;100676.94;;;14.68;55.10
23996;BME280;12207;50.076;8.848;2024-03-17T10:19:14;100664.56;;;14.06;54.50
23996;BME280;12207;50.076;8.848;2024-03-17T10:21:45;100659.63;;;14.21;54.50
23996;BME280;12207;50.076;8.848;2024-03-17T10:24:21;100665.03;;;14.76;55.34
23996;BME280;12207;50.076;8.848;2024-03-17T10:26:48;100665.44;;;14.91;54.84
23996;BME280;12207;50.076;8.848;2024-03-17T10:29:24;100682.22;;;14.93;52.49
23996;BME280;12207;50.076;8.848;2024-03-17T10:32:03;100678.75;;;14.74;53.38
23996;BME280;12207;50.076;8.848;2024-03-17T10:34:30;100682.13;;;14.70;55.46
23996;BME280;12207;50.076;8.848;2024-03-17T10:37:14;100680.94;;;14.47;53.30
23996;BME280;12207;50.076;8.848;2024-03-17T10:39:42;100680.91;;;14.84;54.38
23996;BME280;12207;50.076;8.848;2024-03-17T10:42:11;100667.66;;;14.27;54.03
23996;BME280;12207;50.076;8.848;2024-03-17T10:44:39;100656.78;;;14.34;55.99
23996;BME280;12207;50.076;8.848;2024-03-17T10:47:06;100668.34;;;14.59;57.26
23996;BME280;12207;50.076;8.848;2024-03-17T10:49:37;100656.41;;;14.67;52.37
23996;BME280;12207;50.076;8.848;2024-03-17T10:52:06;100657.63;;;15.01;53.93
23996;BME280;12207;50.076;8.848;2024-03-17T10:54:34;100653.56;;;15.10;52.18
23996;BME280;12207;50.076;8.848;2024-03-17T10:59:54;100651.84;;;15.39;51.55
23996;BME280;12207;50.076;8.848;2024-03-17T11:02:29;100656.06;;;15.77;51.17
23996;BME280;12207;50.076;8.848;2024-03-17T11:05:00;100644.97;;;15.13;49.81
23996;BME280;12207;50.076;8.848;2024-03-17T11:07:28;100646.59;;;15.32;51.19
23996;BME280;12207;50.076;8.848;2024-03-17T11:09:57;100648.34;;;15.39;51.83
23996;BME280;12207;50.076;8.848;2024-03-17T11:12:44;100665.44;;;15.62;52.52
23996;BME280;12207;50.076;8.848;2024-03-17T11:17:58;100654.03;;;15.60;52.82
23996;BME280;12207;50.076;8.848;2024-03-17T11:21:03;100652.16;;;15.61;51.03
23996;BME280;12207;50.076;8.848;2024-03-17T11:23:42;100661.38;;;15.00;51.20
23996;BME280;12207;50.076;8.848;2024-03-17T11:26:08;100659.09;;;14.85;53.34
23996;BME280;12207;50.076;8.848;2024-03-17T11:31:40;100651.22;;;14.84;54.73
23996;BME280;12207;50.076;8.848;2024-03-17T11:36:52;100646.91;;;15.24;55.16
23996;BME280;12207;50.076;8.848;2024-03-17T11:42:13;100649.53;;;14.71;54.55
23996;BME280;12207;50.076;8.848;2024-03-17T11:44:43;100646.75;;;14.78;55.25
23996;BME280;12207;50.076;8.848;2024-03-17T11:47:10;100639.69;;;14.77;54.24
23996;BME280;12207;50.076;8.848;2024-03-17T11:49:40;100642.69;;;14.87;54.08
23996;BME280;12207;50.076;8.848;2024-03-17T11:52:14;100642.09;;;14.85;55.15
23996;BME280;12207;50.076;8.848;2024-03-17T11:54:45;100640.84;;;14.99;53.93
23996;BME280;12207;50.076;8.848;2024-03-17T11:57:14;100647.50;;;14.85;54.76
23996;BME280;12207;50.076;8.848;2024-03-17T11:59:40;100640.16;;;14.74;54.28
23996;BME280;12207;50.076;8.848;2024-03-17T12:02:25;100636.41;;;14.75;53.58
23996;BME280;12207;50.076;8.848;2024-03-17T12:04:53;100635.97;;;15.08;53.61
23996;BME280;12207;50.076;8.848;2024-03-17T12:07:21;100634.25;;;15.36;52.94
23996;BME280;12207;50.076;8.848;2024-03-17T12:09:50;100626.81;;;15.97;53.21
23996;BME280;12207;50.076;8.848;2024-03-17T12:12:27;100624.56;;;16.57;51.77
23996;BME280;12207;50.076;8.848;2024-03-17T12:15:03;100629.63;;;16.54;49.60
23996;BME280;12207;50.076;8.848;2024-03-17T12:17:31;100631.38;;;16.72;50.39
23996;BME280;12207;50.076;8.848;2024-03-17T12:19:58;100627.59;;;16.73;48.79
23996;BME280;12207;50.076;8.848;2024-03-17T12:22:26;100632.34;;;16.65;49.12
23996;BME280;12207;50.076;8.848;2024-03-17T12:24:54;100628.66;;;16.72;49.58
23996;BME280;12207;50.076;8.848;2024-03-17T12:27:25;100628.44;;;16.73;51.71
23996;BME280;12207;50.076;8.848;2024-03-17T12:29:53;100623.03;;;16.61;49.13
23996;BME280;12207;50.076;8.848;2024-03-17T12:32:23;100615.59;;;16.28;50.67
23996;BME280;12207;50.076;8.848;2024-03-17T12:34:57;100602.38;;;15.80;51.07
23996;BME280;12207;50.076;8.848;2024-03-17T12:37:24;100605.50;;;16.12;52.84
23996;BME280;12207;50.076;8.848;2024-03-17T12:39:52;100600.66;;;16.26;52.59
23996;BME280;12207;50.076;8.848;2024-03-17T12:42:24;100598.88;;;16.31;52.47
23996;BME280;12207;50.076;8.848;2024-03-17T12:47:20;100601.38;;;16.10;51.99
23996;BME280;12207;50.076;8.848;2024-03-17T12:49:47;100591.28;;;16.17;54.67
23996;BME280;12207;50.076;8.848;2024-03-17T12:55:02;100589.09;;;16.42;52.06
23996;BME280;12207;50.076;8.848;2024-03-17T12:57:49;100577.59;;;16.35;51.87
23996;BME280;12207;50.076;8.848;2024-03-17T13:00:34;100574.03;;;16.46;54.96
23996;BME280;12207;50.076;8.848;2024-03-17T13:03:05;100572.66;;;16.32;54.77
23996;BME280;12207;50.076;8.848;2024-03-17T13:05:35;100568.94;;;16.21;54.50
23996;BME280;12207;50.076;8.848;2024-03-17T13:08:02;100573.63;;;16.26;52.65
23996;BME280;12207;50.076;8.848;2024-03-17T13:10:31;100568.16;;;16.37;51.46
23996;BME280;12207;50.076;8.848;2024-03-17T13:13:05;100563.63;;;16.66;50.16
23996;BME280;12207;50.076;8.848;2024-03-17T13:15:33;100557.66;;;16.24;53.98
23996;BME280;12207;50.076;8.848;2024-03-17T13:18:02;100552.09;;;16.59;52.92
23996;BME280;12207;50.076;8.848;2024-03-17T13:20:30;100552.47;;;16.80;52.93
23996;BME280;12207;50.076;8.848;2024-03-17T13:22:57;100547.41;;;16.26;51.57